Time;durP1;ratioP1;P1;durP2;ratioP2;P2;SDS_P1;SDS_P2;PMS_P1;PMS_P2;Temp;Humidity;BMP_temperature;BMP_pressure;BME280_temperature;BME280_humidity;BME280_pressure;Samples;Min_cycle;Max_cycle;Signal;HPM_P1;HPM_P2
2021/05/12 00:00:22;;;;;;;2.33;1.60;;;;;;;-150.07;26.72;56213.16;4977998;28;20391;-88
2021/05/12 00:02:50;;;;;;;3.63;1.83;;;;;;;-150.07;26.44;56512.00;4979179;28;20027;-87
2021/05/12 00:05:18;;;;;;;4.78;1.60;;;;;;;-150.07;26.73;56263.31;4984513;28;20049;-89
2021/05/12 00:07:46;;;;;;;2.13;1.90;;;;;;;-150.07;26.62;56248.69;4984407;28;20048;-88
2021/05/12 00:10:15;;;;;;;4.10;1.98;;;;;;;-150.07;26.58;56250.78;4989366;28;20033;-80
2021/05/12 00:12:43;;;;;;;1.83;1.63;;;;;;;-150.07;26.46;56217.34;4997406;28;20105;-86
2021/05/12 00:15:13;;;;;;;2.28;1.67;;;;;;;-150.07;26.01;56309.28;4987186;28;20027;-82
2021/05/12 00:17:41;;;;;;;;;;;;;;;-150.07;25.74;56265.41;4994120;28;20030;-82
2021/05/12 00:20:09;;;;;;;5.82;2.03;;;;;;;-150.07;26.41;56290.50;4993636;28;19914;-81
2021/05/12 00:22:47;;;;;;;4.97;1.80;;;;;;;-150.07;26.23;56259.16;4993355;28;20061;-81
2021/05/12 00:25:14;;;;;;;8.20;3.05;;;;;;;-150.07;26.45;56242.44;4993724;28;20027;-80
2021/05/12 00:27:41;;;;;;;4.35;2.58;;;;;;;-150.07;26.55;56246.59;4978465;28;20042;-81
2021/05/12 00:30:12;;;;;;;4.63;2.65;;;;;;;-150.07;26.43;56234.06;4993778;28;20060;-80
2021/05/12 00:32:41;;;;;;;3.13;2.80;;;;;;;-150.07;25.77;56248.69;4997383;28;20054;-81
2021/05/12 00:35:10;;;;;;;9.82;2.38;;;;;;;-150.07;25.86;56177.63;4997338;28;20061;-81
2021/05/12 00:37:37;;;;;;;6.50;2.58;;;;;;;-150.07;26.49;56234.06;4996645;28;20026;-80
2021/05/12 00:40:05;;;;;;;2.63;1.95;;;;;;;-150.07;26.38;56267.50;4995024;28;20018;-82
2021/05/12 00:42:33;;;;;;;5.93;2.33;;;;;;;-150.07;26.49;56240.34;4995419;28;20038;-83
2021/05/12 00:45:00;;;;;;;4.65;2.13;;;;;;;-150.07;26.83;56183.91;4995682;28;20018;-80
2021/05/12 00:47:31;;;;;;;3.10;2.78;;;;;;;-150.07;26.57;56238.25;4994754;28;20035;-82
2021/05/12 00:49:59;;;;;;;6.75;2.70;;;;;;;-150.07;25.49;56221.53;4987411;28;20076;-81
2021/05/12 00:52:26;;;;;;;8.05;2.85;;;;;;;-150.07;25.78;56229.88;4993081;28;20030;-82
2021/05/12 00:54:53;;;;;;;3.10;2.13;;;;;;;-150.07;26.02;56447.22;4975576;28;20104;-81
2021/05/12 00:57:22;;;;;;;2.55;2.30;;;;;;;-150.07;25.60;56175.56;4993219;28;20512;-81
2021/05/12 00:59:52;;;;;;;3.35;2.13;;;;;;;-150.07;25.46;56163.00;4991311;28;20081;-82
2021/05/12 01:02:19;;;;;;;5.63;1.95;;;;;;;-150.07;25.21;56213.16;4992612;28;20027;-82
2021/05/12 01:04:47;;;;;;;7.45;2.10;;;;;;;-150.07;25.28;56234.06;4992179;28;20149;-82
2021/05/12 01:07:14;;;;;;;2.13;1.92;;;;;;;-150.07;25.32;56188.09;4992961;28;20026;-81
2021/05/12 01:09:41;;;;;;;5.57;2.25;;;;;;;-150.07;25.48;56167.19;4992632;28;20504;-81
2021/05/12 01:12:08;;;;;;;6.38;2.60;;;;;;;-150.07;25.78;56146.28;4992638;28;20050;-82
2021/05/12 01:14:35;;;;;;;6.97;2.53;;;;;;;-150.07;25.48;56225.72;4992609;28;20033;-81
2021/05/12 01:17:02;;;;;;;3.47;1.73;;;;;;;-150.07;25.21;56137.94;4992630;28;20484;-82
2021/05/12 01:19:29;;;;;;;4.30;2.38;;;;;;;-150.07;25.17;56179.72;4992597;28;20030;-81
2021/05/12 01:21:56;;;;;;;2.50;2.00;;;;;;;-150.07;25.42;56215.25;4992472;28;20106;-82
2021/05/12 01:24:24;;;;;;;3.25;1.70;;;;;;;-150.07;24.90;56202.72;4992505;28;20035;-82
2021/05/12 01:26:51;;;;;;;2.60;2.40;;;;;;;-150.07;25.26;56407.53;4992390;28;20022;-82
2021/05/12 01:29:18;;;;;;;4.60;2.22;;;;;;;-150.07;25.08;56204.81;4992159;28;20030;-82
2021/05/12 01:31:45;;;;;;;4.30;2.05;;;;;;;-150.07;25.38;56202.72;4992358;28;20049;-81
2021/05/12 01:34:15;;;;;;;2.95;1.85;;;;;;;-150.07;25.25;56196.44;4992352;28;20031;-81
2021/05/12 01:36:43;;;;;;;2.92;2.60;;;;;;;-150.07;26.10;56422.16;4992424;28;20395;-82
2021/05/12 01:39:11;;;;;;;3.28;2.53;;;;;;;-150.07;25.69;56158.84;4992215;28;20061;-81
2021/05/12 01:41:38;;;;;;;2.78;1.83;;;;;;;-150.07;24.97;56146.28;4991717;28;20496;-81
2021/05/12 01:44:09;;;;;;;3.08;2.22;;;;;;;-150.07;26.01;56194.38;4991964;28;20034;-81
2021/05/12 01:46:37;;;;;;;4.45;1.77;;;;;;;-150.07;25.48;56221.53;4991918;28;20027;-81
2021/05/12 01:49:04;;;;;;;4.03;1.77;;;;;;;-150.07;25.65;56173.47;4992102;28;20027;-82
2021/05/12 01:51:31;;;;;;;4.53;2.13;;;;;;;-150.07;25.63;56238.25;4992084;28;20029;-82
2021/05/12 01:53:58;;;;;;;2.47;2.28;;;;;;;-150.07;25.49;56163.00;4992027;28;20392;-82
2021/05/12 01:56:25;;;;;;;3.33;2.50;;;;;;;-150.07;25.79;56198.53;4991591;28;20026;-82
2021/05/12 01:58:52;;;;;;;2.58;1.85;;;;;;;-150.07;25.83;56192.28;4991696;28;20117;-81
2021/05/12 02:01:19;;;;;;;5.57;2.20;;;;;;;-150.07;26.13;56188.09;4991734;28;20026;-82
2021/05/12 02:03:46;;;;;;;3.88;1.80;;;;;;;-150.07;25.89;56378.25;4992261;28;20050;-82
2021/05/12 02:06:13;;;;;;;3.33;2.75;;;;;;;-150.07;25.88;56158.84;4996999;28;20037;-81
2021/05/12 02:08:40;;;;;;;4.60;2.28;;;;;;;-150.07;25.68;56183.91;4991925;28;20031;-81
2021/05/12 02:11:08;;;;;;;3.88;2.47;;;;;;;-150.07;25.76;56215.25;4991717;28;20061;-80
2021/05/12 02:13:35;;;;;;;7.78;1.95;;;;;;;-150.07;26.40;56202.72;4990773;28;20031;-81
2021/05/12 02:16:05;;;;;;;3.83;2.38;;;;;;;-150.07;26.56;56200.63;4994244;28;20022;-82
2021/05/12 02:18:33;;;;;;;3.83;2.63;;;;;;;-150.07;26.18;56200.63;5000106;28;20549;-82
2021/05/12 02:21:00;;;;;;;11.68;2.92;;;;;;;-150.07;25.98;56217.34;5010802;28;20511;-81
2021/05/12 02:23:27;;;;;;;6.03;2.53;;;;;;;-150.07;26.20;56217.34;5010934;28;20066;-81
2021/05/12 02:25:54;;;;;;;3.22;2.28;;;;;;;-150.07;25.60;56284.22;5011239;28;20060;-82
2021/05/12 02:28:21;;;;;;;1.83;1.58;;;;;;;-150.07;25.37;56215.25;5011096;28;20022;-82
2021/05/12 02:30:48;;;;;;;5.60;2.28;;;;;;;-150.07;25.89;56204.81;4993215;28;20079;-81
2021/05/12 02:33:16;;;;;;;3.85;2.80;;;;;;;-150.07;26.73;56206.91;4985203;28;20032;-80
2021/05/12 02:35:43;;;;;;;4.38;2.03;;;;;;;-150.07;25.98;56334.38;5011117;28;20061;-81
2021/05/12 02:38:10;;;;;;;4.18;2.58;;;;;;;-150.07;25.59;56200.63;4997070;28;20499;-81
2021/05/12 02:40:37;;;;;;;3.22;1.95;;;;;;;-150.07;26.06;56106.59;5010928;28;20080;-80
2021/05/12 02:43:05;;;;;;;5.70;2.22;;;;;;;-150.07;26.38;56194.38;5011088;28;20057;-82
2021/05/12 02:45:33;;;;;;;10.73;3.10;;;;;;;-150.07;26.18;56196.44;5010860;28;20033;-81
2021/05/12 02:48:02;;;;;;;6.60;3.90;;;;;;;-150.07;25.85;56163.00;4975881;28;20034;-81
2021/05/12 02:50:33;;;;;;;3.78;3.45;;;;;;;-150.07;25.69;56179.72;5010637;28;20022;-82
2021/05/12 02:53:03;;;;;;;8.15;2.58;;;;;;;-150.07;25.62;56334.38;4979239;28;20173;-82
2021/05/12 02:55:30;;;;;;;3.55;2.33;;;;;;;-150.07;25.81;56215.25;5010800;28;20141;-81
2021/05/12 02:57:58;;;;;;;5.47;2.20;;;;;;;-150.07;26.43;56146.28;5011046;28;20022;-82
2021/05/12 03:00:27;;;;;;;12.65;3.25;;;;;;;-150.07;25.85;56188.09;4993008;28;20387;-82
2021/05/12 03:02:55;;;;;;;6.45;2.90;;;;;;;-150.07;25.79;56119.13;5010492;28;20034;-81
2021/05/12 03:05:22;;;;;;;2.42;2.08;;;;;;;-150.07;26.18;56192.28;5010402;28;20394;-81
2021/05/12 03:07:49;;;;;;;3.83;2.33;;;;;;;-150.07;26.41;56167.19;5005568;28;20026;-81
2021/05/12 03:10:19;;;;;;;4.75;2.50;;;;;;;-150.07;26.24;56209.00;5001005;28;20037;-81
2021/05/12 03:12:46;;;;;;;2.95;2.65;;;;;;;-150.07;26.05;56179.72;5007551;28;20035;-82
2021/05/12 03:15:16;;;;;;;3.50;2.72;;;;;;;-150.07;26.02;56211.06;4990886;28;20041;-82
2021/05/12 03:17:43;;;;;;;4.90;2.17;;;;;;;-150.07;25.81;56154.66;4989406;28;20027;-82
2021/05/12 03:20:11;;;;;;;4.38;3.03;;;;;;;-150.07;26.10;56363.63;4973145;28;20038;-82
2021/05/12 03:22:38;;;;;;;5.13;3.50;;;;;;;-150.07;25.79;56163.00;4994546;28;20030;-81
2021/05/12 03:25:05;;;;;;;4.03;3.00;;;;;;;-150.07;25.71;56292.59;5000442;28;20022;-82
2021/05/12 03:27:32;;;;;;;4.70;3.67;;;;;;;-150.07;26.31;56131.66;5006997;28;20079;-82
2021/05/12 03:29:59;;;;;;;8.45;3.80;;;;;;;-150.07;26.25;56094.06;5013709;28;20014;-82
2021/05/12 03:32:26;;;;;;;4.32;3.30;;;;;;;-150.07;27.12;56171.38;5014037;28;20154;-82
2021/05/12 03:34:54;;;;;;;6.13;4.78;;;;;;;-150.07;25.93;56137.94;5014385;28;20053;-82
2021/05/12 03:37:21;;;;;;;8.15;5.28;;;;;;;-150.07;25.83;56163.00;4995543;28;20092;-82
2021/05/12 03:39:48;;;;;;;7.63;3.80;;;;;;;-150.07;26.06;56179.72;4994972;28;20371;-82
2021/05/12 03:42:15;;;;;;;5.65;4.43;;;;;;;-150.07;27.14;56150.47;4976912;28;22386;-82
2021/05/12 03:44:42;;;;;;;5.43;3.22;;;;;;;-150.07;27.16;56108.69;4994522;28;20040;-82
2021/05/12 03:47:09;;;;;;;5.38;3.83;;;;;;;-150.07;26.48;56137.94;5009334;28;20068;-82
2021/05/12 03:49:35;;;;;;;5.78;3.22;;;;;;;-150.07;26.70;56163.00;5012501;28;20145;-83
2021/05/12 03:52:03;;;;;;;12.75;4.43;;;;;;;-150.07;26.20;56142.13;5013721;28;20807;-80
2021/05/12 03:54:29;;;;;;;6.53;3.45;;;;;;;-150.07;26.33;56154.66;5014117;28;20045;-81
2021/05/12 03:56:57;;;;;;;7.15;4.10;;;;;;;-150.07;26.39;56171.38;5014005;28;20046;-82
2021/05/12 03:59:23;;;;;;;13.60;4.10;;;;;;;-150.07;27.22;56181.81;5013659;28;20037;-82
2021/05/12 04:01:50;;;;;;;3.58;3.20;;;;;;;-150.07;26.88;56146.28;5007257;28;20022;-80
2021/05/12 04:04:18;;;;;;;5.32;3.38;;;;;;;-150.07;27.13;56129.56;5006682;28;20057;-81
2021/05/12 04:06:48;;;;;;;6.20;3.42;;;;;;;-150.07;27.16;56133.75;5013845;28;20030;-81
2021/05/12 04:09:15;;;;;;;9.15;2.85;;;;;;;-150.07;27.80;56160.94;5006940;28;20026;-82
2021/05/12 04:11:45;;;;;;;6.97;3.03;;;;;;;-150.07;27.44;56137.94;5013541;28;20026;-82
2021/05/12 04:14:12;;;;;;;7.63;3.13;;;;;;;-150.07;28.56;56150.47;5013805;28;20010;-81
2021/05/12 04:16:39;;;;;;;8.32;3.13;;;;;;;-150.07;27.31;56146.28;5007931;28;20033;-81
2021/05/12 04:19:06;;;;;;;5.32;2.92;;;;;;;-150.07;27.52;56367.81;5005705;28;20029;-82
2021/05/12 04:21:33;;;;;;;5.10;2.67;;;;;;;-150.07;27.73;56181.81;5013309;28;20029;-83
2021/05/12 04:24:00;;;;;;;5.72;2.90;;;;;;;-150.07;27.14;56146.28;5003237;28;20069;-81
2021/05/12 04:26:27;;;;;;;10.63;4.05;;;;;;;-150.07;27.17;56140.03;5010480;28;20046;-81
2021/05/12 04:28:54;;;;;;;5.93;3.95;;;;;;;-150.07;27.41;56175.56;5013719;28;20112;-80
2021/05/12 04:31:21;;;;;;;5.70;3.83;;;;;;;-150.07;27.74;56353.19;5011705;28;20049;-81
2021/05/12 04:33:48;;;;;;;6.40;3.40;;;;;;;-150.07;27.75;56313.47;5001873;28;20020;-82
2021/05/12 04:36:15;;;;;;;4.18;3.10;;;;;;;-150.07;27.50;56148.38;5001436;28;20543;-80
2021/05/12 04:38:42;;;;;;;9.90;3.83;;;;;;;-150.07;27.58;56133.75;5003176;28;20057;-80
2021/05/12 04:41:08;;;;;;;4.75;3.60;;;;;;;-150.07;27.13;56150.47;4987001;28;20091;-81
2021/05/12 04:43:35;;;;;;;10.65;3.90;;;;;;;-150.07;27.45;56167.19;4999040;28;20354;-81
2021/05/12 04:46:02;;;;;;;6.57;3.28;;;;;;;-150.07;27.81;56163.00;4997079;28;20459;-80
2021/05/12 04:48:30;;;;;;;6.90;3.35;;;;;;;-150.07;27.65;56121.22;5005450;28;20383;-82
2021/05/12 04:50:58;;;;;;;5.65;3.60;;;;;;;-150.07;28.04;56142.13;4983145;28;20033;-82
2021/05/12 04:53:26;;;;;;;5.55;3.50;;;;;;;-150.07;28.00;56144.22;5001141;28;20025;-81
2021/05/12 04:55:52;;;;;;;8.07;3.30;;;;;;;-150.07;28.03;56083.59;5013458;28;20018;-82
2021/05/12 04:58:20;;;;;;;6.57;3.42;;;;;;;-150.07;28.03;56315.56;5013678;28;20018;-82
2021/05/12 05:00:47;;;;;;;5.05;3.78;;;;;;;-150.07;27.80;56152.56;5015159;28;20034;-82
2021/05/12 05:03:14;;;;;;;9.18;3.70;;;;;;;-150.07;27.87;56100.31;4991551;28;20088;-81
2021/05/12 05:05:41;;;;;;;8.90;4.10;;;;;;;-150.07;28.33;56133.75;4993690;28;20496;-82
2021/05/12 05:08:09;;;;;;;10.88;4.78;;;;;;;-150.07;28.47;56328.09;4994250;28;20847;-81
2021/05/12 05:10:36;;;;;;;10.55;4.35;;;;;;;-150.07;28.29;56158.84;4975589;28;20022;-82
2021/05/12 05:13:03;;;;;;;4.60;4.00;;;;;;;-150.07;28.37;56163.00;4992780;28;20474;-81
2021/05/12 05:15:30;;;;;;;8.45;6.00;;;;;;;-150.07;28.28;56192.28;4992829;28;20022;-81
2021/05/12 05:17:57;;;;;;;6.03;4.38;;;;;;;-150.07;27.97;56167.19;4992678;28;20126;-82
2021/05/12 05:20:26;;;;;;;7.82;4.72;;;;;;;-150.07;28.33;56142.13;4992589;28;20085;-81
2021/05/12 05:22:53;;;;;;;10.40;6.50;;;;;;;-150.07;28.00;56137.94;4992367;28;20034;-81
2021/05/12 05:25:20;;;;;;;8.93;6.65;;;;;;;-150.07;28.15;56367.81;4992573;28;20121;-81
2021/05/12 05:27:46;;;;;;;11.23;7.57;;;;;;;-150.07;28.06;56160.94;4992500;28;20031;-81
2021/05/12 05:30:14;;;;;;;9.32;6.78;;;;;;;-150.07;28.09;56123.31;4992767;28;20109;-81
2021/05/12 05:32:41;;;;;;;13.15;7.13;;;;;;;-150.07;28.55;56146.28;4991213;28;20034;-83
2021/05/12 05:35:08;;;;;;;12.10;6.55;;;;;;;-150.07;28.17;56108.69;4992387;28;20053;-81
2021/05/12 05:37:35;;;;;;;11.93;7.20;;;;;;;-150.07;28.97;56158.84;4992306;28;20117;-81
2021/05/12 05:40:02;;;;;;;10.07;5.93;;;;;;;-150.07;29.16;56300.94;4992577;28;20120;-82
2021/05/12 05:42:29;;;;;;;14.88;6.35;;;;;;;-150.07;28.26;56244.50;4992161;28;20025;-81
2021/05/12 05:44:56;;;;;;;13.30;6.90;;;;;;;-150.07;27.84;56094.06;4992339;28;20468;-81
2021/05/12 05:47:23;;;;;;;7.72;6.82;;;;;;;-150.07;27.71;56114.94;4992259;28;20395;-82
2021/05/12 05:49:50;;;;;;;8.95;6.60;;;;;;;-150.07;28.16;56121.22;4992469;28;20037;-81
2021/05/12 05:52:17;;;;;;;10.00;7.00;;;;;;;-150.07;28.03;56142.13;4991012;28;20109;-83
2021/05/12 05:54:44;;;;;;;13.50;6.65;;;;;;;-150.07;28.27;56133.75;4992216;28;20073;-81
2021/05/12 05:57:17;;;;;;;12.70;8.60;;;;;;;-150.07;28.60;56146.28;4991920;28;20034;-80
2021/05/12 05:59:44;;;;;;;10.57;7.93;;;;;;;-150.07;28.91;56135.84;4991801;28;20027;-82
2021/05/12 06:02:11;;;;;;;14.52;9.25;;;;;;;-150.07;29.03;56250.78;4991735;28;20116;-82
2021/05/12 06:04:38;;;;;;;22.92;9.65;;;;;;;-150.07;29.52;56108.69;4990123;28;20160;-81
2021/05/12 06:07:05;;;;;;;16.73;10.25;;;;;;;-150.07;29.41;56165.09;4991497;28;20341;-82
2021/05/12 06:09:32;;;;;;;27.08;10.18;;;;;;;-150.07;29.59;56156.75;4974026;28;20034;-82
2021/05/12 06:11:59;;;;;;;19.63;9.98;;;;;;;-150.07;29.31;56300.94;4991391;28;20022;-81
2021/05/12 06:14:26;;;;;;;15.70;9.93;;;;;;;-150.07;29.77;56317.66;4981899;28;20042;-82
2021/05/12 06:16:53;;;;;;;13.65;9.43;;;;;;;-150.07;29.45;56165.09;4990688;28;20488;-81
2021/05/12 06:19:20;;;;;;;11.50;9.27;;;;;;;-150.07;29.44;56135.84;4991447;28;20153;-82
2021/05/12 06:21:46;;;;;;;13.23;10.60;;;;;;;-150.07;29.62;56144.22;4991756;28;20026;-81
2021/05/12 06:24:13;;;;;;;14.88;11.90;;;;;;;-150.07;29.41;56158.84;4991378;28;20035;-81
2021/05/12 06:26:40;;;;;;;16.70;11.32;;;;;;;-150.07;29.22;56129.56;4991304;28;20542;-81
2021/05/12 06:29:08;;;;;;;18.40;12.75;;;;;;;-150.07;29.06;56146.28;4985132;28;20480;-82
2021/05/12 06:31:35;;;;;;;13.82;11.50;;;;;;;-150.07;29.01;56177.63;4973828;28;20039;-80
2021/05/12 06:34:02;;;;;;;16.65;10.98;;;;;;;-150.07;29.04;56127.50;4991605;28;20130;-81
2021/05/12 06:36:29;;;;;;;14.80;11.90;;;;;;;-150.07;29.48;56110.78;4991384;28;20025;-81
2021/05/12 06:38:56;;;;;;;15.82;11.70;;;;;;;-150.07;29.62;56165.09;4991494;28;20030;-82
2021/05/12 06:41:23;;;;;;;19.38;11.93;;;;;;;-150.07;28.97;56163.00;4991091;28;20085;-80
2021/05/12 06:43:51;;;;;;;15.45;12.85;;;;;;;-150.07;29.31;56309.28;4991490;28;20034;-81
2021/05/12 06:46:18;;;;;;;21.35;13.68;;;;;;;-150.07;29.13;56186.00;4975766;28;20546;-81
2021/05/12 06:48:44;;;;;;;19.13;11.43;;;;;;;-150.07;29.15;56158.84;4991306;28;20101;-81
2021/05/12 06:51:13;;;;;;;17.77;12.95;;;;;;;-150.07;28.86;56129.56;4989752;28;20034;-81
2021/05/12 06:53:40;;;;;;;21.63;13.30;;;;;;;-150.07;28.82;56129.56;4991108;28;20113;-82
2021/05/12 06:56:07;;;;;;;19.60;14.48;;;;;;;-150.07;28.40;56202.72;4990980;28;20420;-81
2021/05/12 06:58:34;;;;;;;24.13;16.38;;;;;;;-150.07;28.51;56238.25;4991087;28;20023;-81
2021/05/12 07:01:02;;;;;;;18.85;15.05;;;;;;;-150.07;28.82;56158.84;4978746;28;20034;-81
2021/05/12 07:03:28;;;;;;;19.38;12.63;;;;;;;-150.07;28.95;56100.31;4992168;28;20035;-80
2021/05/12 07:05:56;;;;;;;21.08;14.02;;;;;;;-150.07;29.13;56108.69;5012670;28;20046;-81
2021/05/12 07:08:23;;;;;;;18.58;14.18;;;;;;;-150.07;29.03;56112.84;5001700;28;20038;-82
2021/05/12 07:10:50;;;;;;;20.15;14.40;;;;;;;-150.07;28.59;56221.53;5003963;28;20026;-82
2021/05/12 07:13:18;;;;;;;18.75;15.68;;;;;;;-150.07;28.83;56359.47;5014434;28;20041;-81
2021/05/12 07:15:45;;;;;;;26.27;17.85;;;;;;;-150.07;28.54;56240.34;5008098;28;20476;-81
2021/05/12 07:18:12;;;;;;;20.90;15.98;;;;;;;-150.07;28.63;56280.03;5009003;28;20033;-81
2021/05/12 07:20:39;;;;;;;22.67;17.38;;;;;;;-150.07;28.64;56177.63;5014382;28;20034;-82
2021/05/12 07:23:08;;;;;;;20.58;14.88;;;;;;;-150.07;28.69;56171.38;5014313;28;20407;-80
2021/05/12 07:25:36;;;;;;;17.20;15.20;;;;;;;-150.07;29.00;56146.28;5014112;28;20388;-81
2021/05/12 07:28:04;;;;;;;17.63;14.43;;;;;;;-150.07;28.70;56121.22;5002976;28;20096;-81
2021/05/12 07:30:32;;;;;;;18.45;14.05;;;;;;;-150.07;28.48;56163.00;4998297;28;20018;-80
2021/05/12 07:33:01;;;;;;;17.88;12.98;;;;;;;-150.07;29.00;56146.28;5014134;28;20061;-82
2021/05/12 07:35:28;;;;;;;20.67;16.63;;;;;;;-150.07;28.01;56125.41;5014344;28;20034;-81
2021/05/12 07:37:55;;;;;;;24.80;16.17;;;;;;;-150.07;28.32;56154.66;5005455;28;20112;-79
2021/05/12 07:40:22;;;;;;;21.10;17.00;;;;;;;-150.07;28.11;56129.56;5010858;28;20105;-81
2021/05/12 07:42:50;;;;;;;17.73;15.23;;;;;;;-150.07;28.74;56163.00;5013771;28;20493;-81
2021/05/12 07:45:17;;;;;;;22.45;17.38;;;;;;;-150.07;28.01;56146.28;4982138;28;20044;-82
2021/05/12 07:47:44;;;;;;;26.85;18.67;;;;;;;-150.07;28.43;56231.97;5001335;28;20026;-81
2021/05/12 07:50:11;;;;;;;20.58;16.23;;;;;;;-150.07;28.63;56100.31;5013747;28;20474;-81
2021/05/12 07:52:38;;;;;;;24.60;17.83;;;;;;;-150.07;28.84;56165.09;5013852;28;20083;-81
2021/05/12 07:55:06;;;;;;;19.05;16.52;;;;;;;-150.07;29.48;56135.84;4996063;28;20022;-82
2021/05/12 07:57:33;;;;;;;20.17;15.65;;;;;;;-150.07;29.93;56165.09;5006858;28;20141;-81
2021/05/12 08:00:02;;;;;;;22.17;15.77;;;;;;;-150.07;29.96;56163.00;5007064;28;20026;-81
2021/05/12 08:02:29;;;;;;;20.70;17.63;;;;;;;-150.07;29.93;56148.38;5013547;28;20010;-81
2021/05/12 08:04:56;;;;;;;23.00;16.60;;;;;;;-150.07;29.39;56175.56;5001909;28;20038;-81
2021/05/12 08:07:23;;;;;;;26.67;17.77;;;;;;;-150.07;29.86;56171.38;4993835;28;20030;-81
2021/05/12 08:09:50;;;;;;;18.50;14.48;;;;;;;-150.07;29.59;56165.09;4994578;28;20081;-81
2021/05/12 08:12:17;;;;;;;20.52;14.48;;;;;;;-150.07;29.99;56181.81;4993897;28;20125;-80
2021/05/12 08:14:44;;;;;;;16.02;13.18;;;;;;;-150.07;29.83;56091.97;4992918;28;20030;-81
2021/05/12 08:17:11;;;;;;;20.52;13.80;;;;;;;-150.07;29.88;56177.63;4993432;28;20022;-81
2021/05/12 08:19:38;;;;;;;17.30;13.75;;;;;;;-150.07;29.97;56137.94;4993805;28;20133;-81
2021/05/12 08:22:06;;;;;;;21.30;14.27;;;;;;;-150.07;29.85;56150.47;4993721;28;20479;-81
2021/05/12 08:24:33;;;;;;;17.08;12.77;;;;;;;-150.07;29.88;56165.09;4993728;28;20045;-81
2021/05/12 08:27:01;;;;;;;24.05;14.27;;;;;;;-150.07;29.75;56160.94;4993764;28;20042;-81
2021/05/12 08:29:30;;;;;;;16.55;13.15;;;;;;;-150.07;29.68;56167.19;4993654;28;20058;-81
2021/05/12 08:32:00;;;;;;;14.70;12.35;;;;;;;-150.07;29.61;56179.72;4993573;28;20022;-81
2021/05/12 08:34:28;;;;;;;17.27;12.52;;;;;;;-150.07;29.71;56181.81;4993401;28;20061;-81
2021/05/12 08:36:58;;;;;;;14.57;12.07;;;;;;;-150.07;29.59;56140.03;4978930;28;20057;-82
2021/05/12 08:39:25;;;;;;;15.63;10.82;;;;;;;-150.07;30.06;56158.84;4993711;28;20038;-80
2021/05/12 08:41:53;;;;;;;14.43;10.45;;;;;;;-150.07;30.37;56179.72;4993483;28;20484;-82
2021/05/12 08:44:21;;;;;;;12.13;10.68;;;;;;;-150.07;30.24;56183.91;4975759;28;20089;-81
2021/05/12 08:46:49;;;;;;;14.00;11.55;;;;;;;-150.07;30.71;56192.28;4993266;28;20029;-80
2021/05/12 08:49:18;;;;;;;15.00;11.25;;;;;;;-150.07;31.33;56179.72;4993406;28;20026;-81
2021/05/12 08:51:45;;;;;;;13.68;10.13;;;;;;;-150.07;31.04;56175.56;4984648;28;20026;-81
2021/05/12 08:54:14;;;;;;;15.63;11.50;;;;;;;-150.07;31.12;56144.22;4993007;28;20022;-81
2021/05/12 08:56:41;;;;;;;17.08;10.65;;;;;;;-150.07;31.22;56106.59;4993239;28;20499;-81
2021/05/12 08:59:08;;;;;;;20.00;11.25;;;;;;;-150.07;30.89;56190.19;4993331;28;20042;-82
2021/05/12 09:01:35;;;;;;;18.63;11.30;;;;;;;-150.07;30.81;56142.13;4992917;28;20177;-81
2021/05/12 09:04:04;;;;;;;13.05;9.70;;;;;;;-150.07;30.80;56173.47;4992937;28;20120;-82
2021/05/12 09:06:36;;;;;;;14.93;11.60;;;;;;;-150.07;30.49;56192.28;4992971;28;20061;-81
2021/05/12 09:09:06;;;;;;;14.40;11.10;;;;;;;-150.07;30.47;56131.66;4992752;28;20124;-82
2021/05/12 09:11:34;;;;;;;18.45;11.18;;;;;;;-150.07;30.76;56160.94;4975387;28;20034;-82
2021/05/12 09:14:03;;;;;;;12.15;10.93;;;;;;;-150.07;30.73;56129.56;4992789;28;20563;-81
2021/05/12 09:16:34;;;;;;;13.98;12.48;;;;;;;-150.07;30.66;56158.84;4992866;28;20034;-81
2021/05/12 09:19:05;;;;;;;17.80;12.82;;;;;;;-150.07;30.84;56137.94;4992638;28;20030;-80
2021/05/12 09:22:01;;;;;;;13.90;11.73;;;;;;;-150.07;30.63;56179.72;4992551;28;20030;-81
2021/05/12 09:24:31;;;;;;;13.18;11.77;;;;;;;-150.07;31.03;56192.28;4991456;28;20074;-82
2021/05/12 09:27:09;;;;;;;;;;;;;;;-150.07;30.25;56198.53;4992890;28;20031;-81
2021/05/12 09:29:41;;;;;;;15.93;12.35;;;;;;;-150.07;30.55;56148.38;4992516;28;19915;-81
2021/05/12 09:32:16;;;;;;;19.35;13.40;;;;;;;-150.07;30.98;56188.09;4992522;28;20388;-81
2021/05/12 09:35:03;;;;;;;16.85;13.73;;;;;;;-150.07;30.89;56202.72;4992439;28;20028;-82
2021/05/12 09:37:38;;;;;;;21.00;15.48;;;;;;;-150.07;30.78;56167.19;4992521;28;20022;-80
2021/05/12 09:40:08;;;;;;;20.02;14.98;;;;;;;-150.07;31.09;56188.09;4992612;28;20888;-81
2021/05/12 09:42:37;;;;;;;18.25;14.82;;;;;;;-150.07;30.56;56156.75;4992019;28;20445;-81
2021/05/12 09:45:15;;;;;;;23.25;16.27;;;;;;;-150.07;30.83;56171.38;4992375;28;20880;-81
2021/05/12 09:47:45;;;;;;;27.20;19.10;;;;;;;-150.07;31.22;56200.63;4990582;28;20030;-81
2021/05/12 09:50:32;;;;;;;25.67;18.52;;;;;;;-150.07;31.59;56213.16;4992249;28;20022;-81
2021/05/12 09:53:05;;;;;;;22.67;19.52;;;;;;;-150.07;31.76;56194.38;4992093;28;20041;-81
2021/05/12 09:55:36;;;;;;;21.70;16.20;;;;;;;-150.07;32.36;56231.97;4992323;28;20113;-79
2021/05/12 09:58:12;;;;;;;25.38;18.52;;;;;;;-150.07;32.53;56209.00;4992172;28;20058;-82
2021/05/12 10:00:40;;;;;;;23.92;16.60;;;;;;;-150.07;32.85;56152.56;4992186;28;20034;-81
2021/05/12 10:03:09;;;;;;;26.92;17.45;;;;;;;-150.07;33.05;56213.16;4992148;28;20036;-80
2021/05/12 10:05:57;;;;;;;23.00;17.48;;;;;;;-150.07;33.71;56179.72;4991187;28;20058;-81
2021/05/12 10:08:26;;;;;;;23.23;19.00;;;;;;;-150.07;33.50;56194.38;4984278;28;20056;-82
2021/05/12 10:11:04;;;;;;;26.08;22.42;;;;;;;-150.07;33.67;56225.72;4992561;28;20049;-85
2021/05/12 10:13:32;;;;;;;26.63;20.63;;;;;;;-150.07;33.88;56213.16;4992576;28;20030;-84
2021/05/12 10:16:00;;;;;;;28.13;21.38;;;;;;;-150.07;33.80;56198.53;4989891;28;20395;-83
2021/05/12 10:18:27;;;;;;;25.58;19.85;;;;;;;-150.07;34.00;56204.81;4977349;28;20033;-85
2021/05/12 10:20:58;;;;;;;31.48;21.35;;;;;;;-150.07;34.15;56188.09;4992322;28;20026;-83
2021/05/12 10:23:26;;;;;;;28.98;23.48;;;;;;;-150.07;34.10;56198.53;4997584;28;20475;-88
2021/05/12 10:25:55;;;;;;;32.85;22.08;;;;;;;-150.07;33.96;56372.00;5003091;28;21348;-86
2021/05/12 10:28:23;;;;;;;26.92;21.20;;;;;;;-150.07;33.93;56163.00;4972759;28;20050;-82
2021/05/12 10:30:50;;;;;;;28.55;19.13;;;;;;;-150.07;34.03;56468.13;4994809;28;20061;-85
2021/05/12 10:33:37;;;;;;;21.48;18.55;;;;;;;-150.07;33.98;56267.50;4994689;28;20030;-82
2021/05/12 10:36:10;;;;;;;23.58;18.73;;;;;;;-150.07;34.04;56183.91;4975482;28;20030;-84
2021/05/12 10:38:37;;;;;;;24.88;19.15;;;;;;;-150.07;34.21;56428.41;4990485;28;20510;-81
2021/05/12 10:41:05;;;;;;;20.42;18.30;;;;;;;-150.07;34.13;56081.50;4992615;28;20081;-82
2021/05/12 10:43:44;;;;;;;23.98;17.98;;;;;;;-150.07;34.24;56196.44;4991107;28;20038;-82
2021/05/12 10:48:53;;;;;;;26.52;20.52;;;;;;;-150.07;34.31;56436.78;4991221;28;20511;-81
2021/05/12 10:51:20;;;;;;;25.02;21.13;;;;;;;-150.07;34.52;56204.81;4990836;28;20121;-83
2021/05/12 10:53:52;;;;;;;23.48;18.98;;;;;;;-150.07;34.59;56177.63;4989884;28;20023;-83
2021/05/12 10:56:22;;;;;;;26.27;20.33;;;;;;;-150.07;34.59;56227.78;4978110;28;20026;-83
2021/05/12 10:59:00;;;;;;;25.35;20.02;;;;;;;-150.07;34.78;56150.47;4973213;28;20018;-82
2021/05/12 11:01:36;;;;;;;22.98;18.90;;;;;;;-150.07;34.99;56156.75;4990924;28;20042;-82
2021/05/12 11:04:08;;;;;;;22.23;19.42;;;;;;;-150.07;35.16;56221.53;4974263;28;20488;-83
2021/05/12 11:06:41;;;;;;;29.35;21.85;;;;;;;-150.07;35.37;56204.81;4972775;28;20092;-81
2021/05/12 11:09:13;;;;;;;24.08;20.10;;;;;;;-150.07;35.57;56137.94;4973463;28;20396;-84
2021/05/12 11:11:46;;;;;;;33.95;22.95;;;;;;;-150.07;35.69;56211.06;4991285;28;20033;-82
2021/05/12 11:14:22;;;;;;;25.52;20.35;;;;;;;-150.07;36.14;56217.34;4991494;28;20042;-85
2021/05/12 11:17:03;;;;;;;22.48;19.15;;;;;;;-150.07;36.37;56244.50;4989976;28;20034;-82